sensor_id;sensor_type;location;lat;lon;timestamp;P1;durP1;ratioP1;P2;durP2;ratioP2
64157;SDS011;50449;51.528;5.076;2022-10-16T00:01:12;26.67;;;25.27;;
64157;SDS011;50449;51.528;5.076;2022-10-16T00:03:39;27.17;;;25.58;;
64157;SDS011;50449;51.528;5.076;2022-10-16T00:06:05;26.95;;;25.35;;
64157;SDS011;50449;51.528;5.076;2022-10-16T00:08:31;27.20;;;25.50;;
64157;SDS011;50449;51.528;5.076;2022-10-16T00:11:06;27.23;;;25.83;;
64157;SDS011;50449;51.528;5.076;2022-10-16T00:13:34;27.67;;;26.02;;
64157;SDS011;50449;51.528;5.076;2022-10-16T00:16:02;26.73;;;25.23;;
64157;SDS011;50449;51.528;5.076;2022-10-16T00:18:28;27.13;;;25.73;;
64157;SDS011;50449;51.528;5.076;2022-10-16T00:20:54;27.10;;;25.70;;
64157;SDS011;50449;51.528;5.076;2022-10-16T00:23:20;28.05;;;26.40;;
64157;SDS011;50449;51.528;5.076;2022-10-16T00:25:59;27.02;;;25.63;;
64157;SDS011;50449;51.528;5.076;2022-10-16T00:28:27;27.20;;;25.70;;
64157;SDS011;50449;51.528;5.076;2022-10-16T00:30:53;28.30;;;26.80;;
64157;SDS011;50449;51.528;5.076;2022-10-16T00:33:19;28.92;;;27.33;;
64157;SDS011;50449;51.528;5.076;2022-10-16T00:35:44;28.67;;;27.20;;
64157;SDS011;50449;51.528;5.076;2022-10-16T00:38:10;26.98;;;25.52;;
64157;SDS011;50449;51.528;5.076;2022-10-16T00:40:35;29.02;;;27.40;;
64157;SDS011;50449;51.528;5.076;2022-10-16T00:43:00;28.25;;;26.73;;
64157;SDS011;50449;51.528;5.076;2022-10-16T00:45:26;28.50;;;26.70;;
64157;SDS011;50449;51.528;5.076;2022-10-16T00:47:51;26.65;;;25.17;;
64157;SDS011;50449;51.528;5.076;2022-10-16T00:50:24;28.15;;;26.65;;
64157;SDS011;50449;51.528;5.076;2022-10-16T00:52:53;26.45;;;25.05;;
64157;SDS011;50449;51.528;5.076;2022-10-16T00:55:19;29.67;;;27.88;;
64157;SDS011;50449;51.528;5.076;2022-10-16T00:57:45;27.05;;;25.65;;
64157;SDS011;50449;51.528;5.076;2022-10-16T01:00:13;28.52;;;26.95;;
64157;SDS011;50449;51.528;5.076;2022-10-16T01:02:41;27.17;;;25.73;;
64157;SDS011;50449;51.528;5.076;2022-10-16T01:05:07;27.45;;;25.95;;
64157;SDS011;50449;51.528;5.076;2022-10-16T01:10:22;27.33;;;25.90;;
64157;SDS011;50449;51.528;5.076;2022-10-16T01:13:04;26.35;;;24.38;;
64157;SDS011;50449;51.528;5.076;2022-10-16T01:18:12;25.85;;;24.42;;
64157;SDS011;50449;51.528;5.076;2022-10-16T01:31:15;26.52;;;25.05;;
64157;SDS011;50449;51.528;5.076;2022-10-16T01:33:44;27.00;;;25.50;;
64157;SDS011;50449;51.528;5.076;2022-10-16T01:36:13;26.10;;;24.70;;
64157;SDS011;50449;51.528;5.076;2022-10-16T01:38:43;25.52;;;24.23;;
64157;SDS011;50449;51.528;5.076;2022-10-16T01:41:17;28.20;;;26.70;;
64157;SDS011;50449;51.528;5.076;2022-10-16T01:43:51;26.88;;;25.58;;
64157;SDS011;50449;51.528;5.076;2022-10-16T01:46:22;26.83;;;25.40;;
64157;SDS011;50449;51.528;5.076;2022-10-16T01:48:49;26.60;;;25.20;;
64157;SDS011;50449;51.528;5.076;2022-10-16T01:51:17;27.23;;;25.63;;
64157;SDS011;50449;51.528;5.076;2022-10-16T01:53:46;25.35;;;23.98;;
64157;SDS011;50449;51.528;5.076;2022-10-16T01:56:15;27.77;;;26.35;;
64157;SDS011;50449;51.528;5.076;2022-10-16T01:58:47;27.27;;;25.77;;
64157;SDS011;50449;51.528;5.076;2022-10-16T02:01:16;25.95;;;24.60;;
64157;SDS011;50449;51.528;5.076;2022-10-16T02:03:44;26.15;;;24.85;;
64157;SDS011;50449;51.528;5.076;2022-10-16T02:06:13;25.77;;;24.48;;
64157;SDS011;50449;51.528;5.076;2022-10-16T02:08:38;27.15;;;24.85;;
64157;SDS011;50449;51.528;5.076;2022-10-16T02:11:05;26.75;;;25.27;;
64157;SDS011;50449;51.528;5.076;2022-10-16T02:13:38;28.58;;;26.95;;
64157;SDS011;50449;51.528;5.076;2022-10-16T02:16:10;27.40;;;25.90;;
64157;SDS011;50449;51.528;5.076;2022-10-16T02:18:37;26.40;;;25.00;;
64157;SDS011;50449;51.528;5.076;2022-10-16T02:24:03;26.40;;;24.92;;
64157;SDS011;50449;51.528;5.076;2022-10-16T02:26:38;26.35;;;24.85;;
64157;SDS011;50449;51.528;5.076;2022-10-16T02:29:11;25.02;;;23.73;;
64157;SDS011;50449;51.528;5.076;2022-10-16T02:34:07;23.27;;;22.08;;
64157;SDS011;50449;51.528;5.076;2022-10-16T02:36:36;24.50;;;23.20;;
64157;SDS011;50449;51.528;5.076;2022-10-16T02:39:03;25.38;;;24.08;;
64157;SDS011;50449;51.528;5.076;2022-10-16T02:41:30;25.77;;;24.38;;
64157;SDS011;50449;51.528;5.076;2022-10-16T02:43:55;25.20;;;23.98;;
64157;SDS011;50449;51.528;5.076;2022-10-16T02:46:21;26.00;;;24.63;;
64157;SDS011;50449;51.528;5.076;2022-10-16T02:48:46;24.38;;;23.17;;
64157;SDS011;50449;51.528;5.076;2022-10-16T02:51:12;26.58;;;25.20;;
64157;SDS011;50449;51.528;5.076;2022-10-16T02:53:37;26.58;;;25.08;;
64157;SDS011;50449;51.528;5.076;2022-10-16T02:56:03;26.00;;;24.70;;
64157;SDS011;50449;51.528;5.076;2022-10-16T02:58:28;25.98;;;24.52;;
64157;SDS011;50449;51.528;5.076;2022-10-16T03:00:54;25.52;;;24.20;;
64157;SDS011;50449;51.528;5.076;2022-10-16T03:03:20;27.60;;;26.10;;
64157;SDS011;50449;51.528;5.076;2022-10-16T03:05:45;27.10;;;25.70;;
64157;SDS011;50449;51.528;5.076;2022-10-16T03:08:11;30.83;;;25.85;;
64157;SDS011;50449;51.528;5.076;2022-10-16T03:10:37;28.70;;;26.90;;
64157;SDS011;50449;51.528;5.076;2022-10-16T03:13:02;25.92;;;24.52;;
64157;SDS011;50449;51.528;5.076;2022-10-16T03:15:28;25.52;;;24.20;;
64157;SDS011;50449;51.528;5.076;2022-10-16T03:17:54;25.15;;;23.85;;
64157;SDS011;50449;51.528;5.076;2022-10-16T03:20:19;26.10;;;24.70;;
64157;SDS011;50449;51.528;5.076;2022-10-16T03:22:45;25.52;;;24.23;;
64157;SDS011;50449;51.528;5.076;2022-10-16T03:25:10;25.73;;;24.42;;
64157;SDS011;50449;51.528;5.076;2022-10-16T03:27:36;26.50;;;25.10;;
64157;SDS011;50449;51.528;5.076;2022-10-16T03:30:01;25.20;;;23.90;;
64157;SDS011;50449;51.528;5.076;2022-10-16T03:32:27;26.02;;;24.58;;
64157;SDS011;50449;51.528;5.076;2022-10-16T03:34:53;25.90;;;24.60;;
64157;SDS011;50449;51.528;5.076;2022-10-16T03:37:19;26.30;;;24.90;;
64157;SDS011;50449;51.528;5.076;2022-10-16T03:39:45;24.42;;;23.13;;
64157;SDS011;50449;51.528;5.076;2022-10-16T03:42:10;25.33;;;24.05;;
64157;SDS011;50449;51.528;5.076;2022-10-16T03:44:35;27.00;;;25.00;;
64157;SDS011;50449;51.528;5.076;2022-10-16T03:47:01;24.83;;;23.52;;
64157;SDS011;50449;51.528;5.076;2022-10-16T03:49:26;25.25;;;23.90;;
64157;SDS011;50449;51.528;5.076;2022-10-16T03:51:52;25.92;;;24.63;;
64157;SDS011;50449;51.528;5.076;2022-10-16T03:54:17;24.48;;;23.27;;
64157;SDS011;50449;51.528;5.076;2022-10-16T03:56:42;26.20;;;24.73;;
64157;SDS011;50449;51.528;5.076;2022-10-16T03:59:08;25.75;;;24.45;;
64157;SDS011;50449;51.528;5.076;2022-10-16T04:01:33;26.55;;;25.15;;
64157;SDS011;50449;51.528;5.076;2022-10-16T04:03:58;25.10;;;23.83;;
64157;SDS011;50449;51.528;5.076;2022-10-16T04:06:24;25.90;;;24.40;;
64157;SDS011;50449;51.528;5.076;2022-10-16T04:08:49;26.52;;;25.17;;
64157;SDS011;50449;51.528;5.076;2022-10-16T04:11:14;25.85;;;24.55;;
64157;SDS011;50449;51.528;5.076;2022-10-16T04:13:40;26.58;;;25.08;;
64157;SDS011;50449;51.528;5.076;2022-10-16T04:16:06;24.90;;;23.60;;
64157;SDS011;50449;51.528;5.076;2022-10-16T04:18:32;26.60;;;25.17;;
64157;SDS011;50449;51.528;5.076;2022-10-16T04:21:01;25.63;;;24.33;;
64157;SDS011;50449;51.528;5.076;2022-10-16T04:23:27;25.77;;;24.38;;
64157;SDS011;50449;51.528;5.076;2022-10-16T04:25:53;26.80;;;25.40;;
64157;SDS011;50449;51.528;5.076;2022-10-16T04:28:18;25.08;;;23.77;;
64157;SDS011;50449;51.528;5.076;2022-10-16T04:30:43;26.02;;;24.35;;
64157;SDS011;50449;51.528;5.076;2022-10-16T04:33:09;26.20;;;24.90;;
64157;SDS011;50449;51.528;5.076;2022-10-16T04:35:35;26.63;;;24.52;;
64157;SDS011;50449;51.528;5.076;2022-10-16T04:38:00;25.77;;;24.15;;
64157;SDS011;50449;51.528;5.076;2022-10-16T04:40:25;26.40;;;25.10;;
64157;SDS011;50449;51.528;5.076;2022-10-16T04:42:51;25.08;;;23.65;;
64157;SDS011;50449;51.528;5.076;2022-10-16T04:45:16;25.52;;;24.13;;
64157;SDS011;50449;51.528;5.076;2022-10-16T04:47:41;26.13;;;24.35;;
64157;SDS011;50449;51.528;5.076;2022-10-16T04:50:07;25.15;;;23.27;;
64157;SDS011;50449;51.528;5.076;2022-10-16T04:52:33;24.85;;;23.08;;
64157;SDS011;50449;51.528;5.076;2022-10-16T04:54:58;25.15;;;23.60;;
64157;SDS011;50449;51.528;5.076;2022-10-16T04:57:26;22.80;;;21.60;;
64157;SDS011;50449;51.528;5.076;2022-10-16T04:59:52;24.38;;;22.73;;
64157;SDS011;50449;51.528;5.076;2022-10-16T05:02:18;26.20;;;23.73;;
64157;SDS011;50449;51.528;5.076;2022-10-16T05:04:43;24.67;;;23.30;;
64157;SDS011;50449;51.528;5.076;2022-10-16T05:07:09;24.27;;;22.92;;
64157;SDS011;50449;51.528;5.076;2022-10-16T05:09:34;23.60;;;22.45;;
64157;SDS011;50449;51.528;5.076;2022-10-16T05:11:59;25.05;;;23.75;;
64157;SDS011;50449;51.528;5.076;2022-10-16T05:14:25;24.70;;;23.40;;
64157;SDS011;50449;51.528;5.076;2022-10-16T05:16:50;25.95;;;24.55;;
64157;SDS011;50449;51.528;5.076;2022-10-16T05:19:16;24.10;;;22.80;;
64157;SDS011;50449;51.528;5.076;2022-10-16T05:21:42;25.85;;;24.40;;
64157;SDS011;50449;51.528;5.076;2022-10-16T05:24:07;23.17;;;21.90;;
64157;SDS011;50449;51.528;5.076;2022-10-16T05:26:32;25.60;;;24.30;;
64157;SDS011;50449;51.528;5.076;2022-10-16T05:28:58;23.98;;;22.75;;
64157;SDS011;50449;51.528;5.076;2022-10-16T05:31:23;24.88;;;23.40;;
64157;SDS011;50449;51.528;5.076;2022-10-16T05:33:48;26.60;;;25.10;;
64157;SDS011;50449;51.528;5.076;2022-10-16T05:36:14;26.70;;;25.20;;
64157;SDS011;50449;51.528;5.076;2022-10-16T05:38:39;25.95;;;24.45;;
64157;SDS011;50449;51.528;5.076;2022-10-16T05:41:05;24.92;;;23.33;;
64157;SDS011;50449;51.528;5.076;2022-10-16T05:43:31;25.00;;;23.67;;
64157;SDS011;50449;51.528;5.076;2022-10-16T05:46:04;24.85;;;23.55;;
64157;SDS011;50449;51.528;5.076;2022-10-16T05:48:31;25.08;;;23.77;;
64157;SDS011;50449;51.528;5.076;2022-10-16T05:51:01;25.55;;;24.13;;
64157;SDS011;50449;51.528;5.076;2022-10-16T05:53:29;23.67;;;22.38;;
64157;SDS011;50449;51.528;5.076;2022-10-16T05:55:56;26.42;;;24.70;;
64157;SDS011;50449;51.528;5.076;2022-10-16T05:58:22;24.75;;;23.23;;
64157;SDS011;50449;51.528;5.076;2022-10-16T06:03:20;23.60;;;22.40;;
64157;SDS011;50449;51.528;5.076;2022-10-16T06:05:46;24.80;;;23.38;;
64157;SDS011;50449;51.528;5.076;2022-10-16T06:08:11;24.23;;;22.83;;
64157;SDS011;50449;51.528;5.076;2022-10-16T06:10:36;24.02;;;22.83;;
64157;SDS011;50449;51.528;5.076;2022-10-16T06:13:02;25.20;;;23.90;;
64157;SDS011;50449;51.528;5.076;2022-10-16T06:15:27;24.60;;;23.30;;
64157;SDS011;50449;51.528;5.076;2022-10-16T06:17:52;25.30;;;23.90;;
64157;SDS011;50449;51.528;5.076;2022-10-16T06:20:18;24.83;;;23.52;;
64157;SDS011;50449;51.528;5.076;2022-10-16T06:22:43;24.88;;;23.42;;
64157;SDS011;50449;51.528;5.076;2022-10-16T06:25:08;23.38;;;22.17;;
64157;SDS011;50449;51.528;5.076;2022-10-16T06:27:34;23.45;;;22.20;;
64157;SDS011;50449;51.528;5.076;2022-10-16T06:29:59;25.08;;;23.67;;
64157;SDS011;50449;51.528;5.076;2022-10-16T06:32:24;26.25;;;24.75;;
64157;SDS011;50449;51.528;5.076;2022-10-16T06:34:50;27.65;;;24.70;;
64157;SDS011;50449;51.528;5.076;2022-10-16T06:37:15;25.13;;;23.75;;
64157;SDS011;50449;51.528;5.076;2022-10-16T06:39:40;24.55;;;23.13;;
64157;SDS011;50449;51.528;5.076;2022-10-16T06:42:06;25.10;;;23.70;;
64157;SDS011;50449;51.528;5.076;2022-10-16T06:44:31;25.60;;;24.10;;
64157;SDS011;50449;51.528;5.076;2022-10-16T06:46:56;25.23;;;23.70;;
64157;SDS011;50449;51.528;5.076;2022-10-16T06:49:22;24.08;;;22.83;;
64157;SDS011;50449;51.528;5.076;2022-10-16T06:51:48;24.60;;;23.20;;
64157;SDS011;50449;51.528;5.076;2022-10-16T06:54:14;23.92;;;22.42;;
64157;SDS011;50449;51.528;5.076;2022-10-16T06:56:40;24.40;;;23.02;;
64157;SDS011;50449;51.528;5.076;2022-10-16T06:59:05;23.55;;;22.10;;
64157;SDS011;50449;51.528;5.076;2022-10-16T07:01:31;23.80;;;22.63;;
64157;SDS011;50449;51.528;5.076;2022-10-16T07:03:57;24.77;;;23.38;;
64157;SDS011;50449;51.528;5.076;2022-10-16T07:06:23;24.23;;;22.85;;
64157;SDS011;50449;51.528;5.076;2022-10-16T07:08:49;25.95;;;24.45;;
64157;SDS011;50449;51.528;5.076;2022-10-16T07:11:19;24.23;;;22.83;;
64157;SDS011;50449;51.528;5.076;2022-10-16T07:13:46;25.55;;;23.98;;
64157;SDS011;50449;51.528;5.076;2022-10-16T07:16:13;24.60;;;23.20;;
64157;SDS011;50449;51.528;5.076;2022-10-16T07:18:40;24.02;;;22.63;;
64157;SDS011;50449;51.528;5.076;2022-10-16T07:21:15;24.25;;;22.95;;
64157;SDS011;50449;51.528;5.076;2022-10-16T07:23:42;24.75;;;23.45;;
64157;SDS011;50449;51.528;5.076;2022-10-16T07:26:08;24.73;;;23.33;;
64157;SDS011;50449;51.528;5.076;2022-10-16T07:28:34;23.77;;;22.58;;
64157;SDS011;50449;51.528;5.076;2022-10-16T07:31:01;25.65;;;24.08;;
64157;SDS011;50449;51.528;5.076;2022-10-16T07:33:27;24.30;;;23.00;;
64157;SDS011;50449;51.528;5.076;2022-10-16T07:35:53;26.08;;;24.38;;
64157;SDS011;50449;51.528;5.076;2022-10-16T07:38:20;24.25;;;22.85;;
64157;SDS011;50449;51.528;5.076;2022-10-16T07:40:46;24.60;;;23.30;;
64157;SDS011;50449;51.528;5.076;2022-10-16T07:43:12;24.02;;;22.67;;
64157;SDS011;50449;51.528;5.076;2022-10-16T07:45:40;23.85;;;22.35;;
64157;SDS011;50449;51.528;5.076;2022-10-16T07:48:12;24.23;;;22.92;;
64157;SDS011;50449;51.528;5.076;2022-10-16T07:50:37;25.08;;;23.27;;
64157;SDS011;50449;51.528;5.076;2022-10-16T07:53:03;26.38;;;24.88;;
64157;SDS011;50449;51.528;5.076;2022-10-16T07:55:29;24.40;;;23.10;;
64157;SDS011;50449;51.528;5.076;2022-10-16T07:57:54;25.33;;;23.58;;
64157;SDS011;50449;51.528;5.076;2022-10-16T08:00:20;25.67;;;24.05;;
64157;SDS011;50449;51.528;5.076;2022-10-16T08:02:45;25.05;;;23.50;;
64157;SDS011;50449;51.528;5.076;2022-10-16T08:05:10;23.15;;;21.75;;
64157;SDS011;50449;51.528;5.076;2022-10-16T08:07:36;24.63;;;23.23;;
64157;SDS011;50449;51.528;5.076;2022-10-16T08:10:01;25.23;;;23.63;;
64157;SDS011;50449;51.528;5.076;2022-10-16T08:12:28;24.67;;;23.17;;
64157;SDS011;50449;51.528;5.076;2022-10-16T08:14:53;25.58;;;24.20;;
64157;SDS011;50449;51.528;5.076;2022-10-16T08:17:18;25.73;;;24.25;;
64157;SDS011;50449;51.528;5.076;2022-10-16T08:19:44;24.98;;;23.52;;
64157;SDS011;50449;51.528;5.076;2022-10-16T08:22:11;23.98;;;22.67;;
64157;SDS011;50449;51.528;5.076;2022-10-16T08:24:36;24.05;;;22.67;;
64157;SDS011;50449;51.528;5.076;2022-10-16T08:27:02;25.52;;;24.02;;
64157;SDS011;50449;51.528;5.076;2022-10-16T08:29:27;27.77;;;25.63;;
64157;SDS011;50449;51.528;5.076;2022-10-16T08:31:53;26.80;;;25.02;;
64157;SDS011;50449;51.528;5.076;2022-10-16T08:34:18;28.73;;;26.52;;
64157;SDS011;50449;51.528;5.076;2022-10-16T08:36:44;24.45;;;23.00;;
64157;SDS011;50449;51.528;5.076;2022-10-16T08:39:09;25.65;;;23.98;;
64157;SDS011;50449;51.528;5.076;2022-10-16T08:47:05;23.33;;;22.10;;
64157;SDS011;50449;51.528;5.076;2022-10-16T08:49:51;25.08;;;23.48;;
64157;SDS011;50449;51.528;5.076;2022-10-16T08:52:30;23.58;;;22.27;;
64157;SDS011;50449;51.528;5.076;2022-10-16T08:55:00;24.05;;;22.52;;
64157;SDS011;50449;51.528;5.076;2022-10-16T08:57:27;24.58;;;23.27;;
64157;SDS011;50449;51.528;5.076;2022-10-16T08:59:53;23.05;;;21.73;;
64157;SDS011;50449;51.528;5.076;2022-10-16T09:02:31;22.88;;;21.63;;
64157;SDS011;50449;51.528;5.076;2022-10-16T09:05:08;24.00;;;22.70;;
64157;SDS011;50449;51.528;5.076;2022-10-16T09:10:52;24.50;;;23.13;;
64157;SDS011;50449;51.528;5.076;2022-10-16T09:13:29;23.15;;;21.67;;
64157;SDS011;50449;51.528;5.076;2022-10-16T09:19:00;25.05;;;22.50;;
64157;SDS011;50449;51.528;5.076;2022-10-16T09:23:53;23.65;;;22.10;;
64157;SDS011;50449;51.528;5.076;2022-10-16T09:26:22;23.48;;;22.17;;
64157;SDS011;50449;51.528;5.076;2022-10-16T09:28:48;23.25;;;21.85;;
64157;SDS011;50449;51.528;5.076;2022-10-16T09:31:15;25.30;;;23.80;;
64157;SDS011;50449;51.528;5.076;2022-10-16T09:33:43;23.45;;;22.25;;
64157;SDS011;50449;51.528;5.076;2022-10-16T09:36:14;25.65;;;24.25;;
64157;SDS011;50449;51.528;5.076;2022-10-16T09:38:40;24.48;;;23.08;;
64157;SDS011;50449;51.528;5.076;2022-10-16T09:41:23;25.33;;;23.73;;
64157;SDS011;50449;51.528;5.076;2022-10-16T09:43:59;24.65;;;23.05;;
64157;SDS011;50449;51.528;5.076;2022-10-16T09:49:01;25.63;;;24.13;;
64157;SDS011;50449;51.528;5.076;2022-10-16T09:51:32;24.83;;;23.17;;
64157;SDS011;50449;51.528;5.076;2022-10-16T09:56:35;24.40;;;22.77;;
64157;SDS011;50449;51.528;5.076;2022-10-16T09:59:18;24.48;;;22.92;;
64157;SDS011;50449;51.528;5.076;2022-10-16T10:01:48;25.67;;;23.88;;
64157;SDS011;50449;51.528;5.076;2022-10-16T10:04:16;26.83;;;25.10;;
64157;SDS011;50449;51.528;5.076;2022-10-16T10:06:44;24.40;;;22.88;;
64157;SDS011;50449;51.528;5.076;2022-10-16T10:11:53;25.45;;;24.00;;
64157;SDS011;50449;51.528;5.076;2022-10-16T10:14:23;26.00;;;24.42;;
64157;SDS011;50449;51.528;5.076;2022-10-16T10:17:11;26.35;;;24.10;;
64157;SDS011;50449;51.528;5.076;2022-10-16T10:19:48;26.35;;;23.73;;
64157;SDS011;50449;51.528;5.076;2022-10-16T10:22:39;24.20;;;22.65;;
64157;SDS011;50449;51.528;5.076;2022-10-16T10:30:24;25.92;;;24.00;;
64157;SDS011;50449;51.528;5.076;2022-10-16T10:33:43;24.65;;;22.63;;
64157;SDS011;50449;51.528;5.076;2022-10-16T10:35:51;26.42;;;23.75;;
64157;SDS011;50449;51.528;5.076;2022-10-16T10:41:24;25.27;;;23.48;;
64157;SDS011;50449;51.528;5.076;2022-10-16T10:44:03;25.52;;;23.35;;
64157;SDS011;50449;51.528;5.076;2022-10-16T10:57:35;26.50;;;25.00;;
64157;SDS011;50449;51.528;5.076;2022-10-16T11:03:13;26.48;;;23.85;;
64157;SDS011;50449;51.528;5.076;2022-10-16T11:06:59;25.38;;;23.75;;
64157;SDS011;50449;51.528;5.076;2022-10-16T11:09:00;27.75;;;25.55;;
64157;SDS011;50449;51.528;5.076;2022-10-16T11:11:41;26.27;;;24.27;;
64157;SDS011;50449;51.528;5.076;2022-10-16T11:16:42;27.60;;;25.52;;
64157;SDS011;50449;51.528;5.076;2022-10-16T11:19:33;26.90;;;25.20;;
64157;SDS011;50449;51.528;5.076;2022-10-16T11:25:43;26.60;;;24.48;;
64157;SDS011;50449;51.528;5.076;2022-10-16T11:30:20;27.67;;;25.25;;
64157;SDS011;50449;51.528;5.076;2022-10-16T11:32:54;26.88;;;25.15;;
64157;SDS011;50449;51.528;5.076;2022-10-16T11:35:32;29.15;;;27.38;;
64157;SDS011;50449;51.528;5.076;2022-10-16T11:38:09;28.30;;;26.20;;
64157;SDS011;50449;51.528;5.076;2022-10-16T11:40:40;26.23;;;24.55;;
64157;SDS011;50449;51.528;5.076;2022-10-16T11:43:13;28.60;;;26.73;;
64157;SDS011;50449;51.528;5.076;2022-10-16T11:45:42;28.13;;;25.95;;
64157;SDS011;50449;51.528;5.076;2022-10-16T11:48:17;30.75;;;27.77;;
64157;SDS011;50449;51.528;5.076;2022-10-16T11:50:52;27.88;;;25.90;;
64157;SDS011;50449;51.528;5.076;2022-10-16T11:53:23;29.38;;;26.80;;
64157;SDS011;50449;51.528;5.076;2022-10-16T11:56:11;28.50;;;26.85;;
64157;SDS011;50449;51.528;5.076;2022-10-16T12:07:17;29.00;;;26.83;;
64157;SDS011;50449;51.528;5.076;2022-10-16T12:09:48;28.60;;;25.85;;
64157;SDS011;50449;51.528;5.076;2022-10-16T12:12:23;28.33;;;26.55;;
64157;SDS011;50449;51.528;5.076;2022-10-16T12:15:02;28.08;;;25.85;;
64157;SDS011;50449;51.528;5.076;2022-10-16T12:17:34;30.00;;;27.55;;
64157;SDS011;50449;51.528;5.076;2022-10-16T12:20:23;27.63;;;25.67;;
64157;SDS011;50449;51.528;5.076;2022-10-16T12:22:56;27.23;;;25.33;;
64157;SDS011;50449;51.528;5.076;2022-10-16T12:28:32;27.63;;;25.60;;
64157;SDS011;50449;51.528;5.076;2022-10-16T12:30:58;26.23;;;24.52;;
64157;SDS011;50449;51.528;5.076;2022-10-16T12:33:29;28.00;;;26.30;;
64157;SDS011;50449;51.528;5.076;2022-10-16T12:35:57;27.65;;;25.92;;
64157;SDS011;50449;51.528;5.076;2022-10-16T12:38:26;29.33;;;27.35;;
64157;SDS011;50449;51.528;5.076;2022-10-16T12:40:59;29.27;;;26.98;;
64157;SDS011;50449;51.528;5.076;2022-10-16T12:48:31;31.05;;;28.33;;
64157;SDS011;50449;51.528;5.076;2022-10-16T12:50:57;28.05;;;26.48;;
64157;SDS011;50449;51.528;5.076;2022-10-16T12:53:23;29.23;;;27.45;;
64157;SDS011;50449;51.528;5.076;2022-10-16T12:55:56;27.85;;;26.15;;
64157;SDS011;50449;51.528;5.076;2022-10-16T13:01:41;29.25;;;27.30;;
64157;SDS011;50449;51.528;5.076;2022-10-16T13:07:25;27.25;;;25.45;;
64157;SDS011;50449;51.528;5.076;2022-10-16T13:10:09;26.92;;;24.70;;
64157;SDS011;50449;51.528;5.076;2022-10-16T13:12:48;27.30;;;25.60;;
64157;SDS011;50449;51.528;5.076;2022-10-16T13:15:52;30.20;;;28.10;;
64157;SDS011;50449;51.528;5.076;2022-10-16T13:18:42;31.20;;;28.58;;
64157;SDS011;50449;51.528;5.076;2022-10-16T13:24:28;26.92;;;25.08;;
64157;SDS011;50449;51.528;5.076;2022-10-16T13:27:13;30.85;;;28.15;;
64157;SDS011;50449;51.528;5.076;2022-10-16T13:29:41;29.40;;;26.95;;
64157;SDS011;50449;51.528;5.076;2022-10-16T13:32:07;27.75;;;26.05;;
64157;SDS011;50449;51.528;5.076;2022-10-16T13:34:46;31.13;;;29.40;;
64157;SDS011;50449;51.528;5.076;2022-10-16T13:37:17;28.95;;;26.73;;
64157;SDS011;50449;51.528;5.076;2022-10-16T13:39:44;28.80;;;26.85;;
64157;SDS011;50449;51.528;5.076;2022-10-16T13:44:55;26.60;;;25.10;;
64157;SDS011;50449;51.528;5.076;2022-10-16T13:47:22;28.42;;;26.85;;
64157;SDS011;50449;51.528;5.076;2022-10-16T13:50:03;28.42;;;26.77;;
64157;SDS011;50449;51.528;5.076;2022-10-16T13:52:31;29.23;;;27.35;;
64157;SDS011;50449;51.528;5.076;2022-10-16T13:54:57;28.33;;;26.83;;
64157;SDS011;50449;51.528;5.076;2022-10-16T13:57:23;28.08;;;26.67;;
64157;SDS011;50449;51.528;5.076;2022-10-16T13:59:49;28.85;;;26.98;;
64157;SDS011;50449;51.528;5.076;2022-10-16T14:02:22;28.40;;;26.63;;
64157;SDS011;50449;51.528;5.076;2022-10-16T14:04:52;28.55;;;26.80;;
64157;SDS011;50449;51.528;5.076;2022-10-16T14:07:26;27.85;;;26.13;;
64157;SDS011;50449;51.528;5.076;2022-10-16T14:09:54;28.23;;;26.65;;
64157;SDS011;50449;51.528;5.076;2022-10-16T14:12:20;32.95;;;29.65;;
64157;SDS011;50449;51.528;5.076;2022-10-16T14:14:48;29.30;;;27.42;;
64157;SDS011;50449;51.528;5.076;2022-10-16T14:17:18;30.27;;;28.15;;
64157;SDS011;50449;51.528;5.076;2022-10-16T14:19:53;29.83;;;27.75;;
64157;SDS011;50449;51.528;5.076;2022-10-16T14:22:34;30.73;;;28.90;;
64157;SDS011;50449;51.528;5.076;2022-10-16T14:25:02;29.50;;;27.60;;
64157;SDS011;50449;51.528;5.076;2022-10-16T14:30:28;29.33;;;27.30;;
64157;SDS011;50449;51.528;5.076;2022-10-16T14:32:58;29.10;;;27.58;;
64157;SDS011;50449;51.528;5.076;2022-10-16T14:37:55;29.23;;;27.25;;
64157;SDS011;50449;51.528;5.076;2022-10-16T14:40:26;27.35;;;25.90;;
64157;SDS011;50449;51.528;5.076;2022-10-16T14:42:54;31.92;;;29.60;;
64157;SDS011;50449;51.528;5.076;2022-10-16T14:45:24;28.23;;;26.42;;
64157;SDS011;50449;51.528;5.076;2022-10-16T14:47:52;30.88;;;29.08;;
64157;SDS011;50449;51.528;5.076;2022-10-16T14:50:21;29.70;;;27.70;;
64157;SDS011;50449;51.528;5.076;2022-10-16T14:52:46;29.88;;;27.88;;
64157;SDS011;50449;51.528;5.076;2022-10-16T14:55:12;29.98;;;28.17;;
64157;SDS011;50449;51.528;5.076;2022-10-16T14:57:38;31.95;;;29.92;;
64157;SDS011;50449;51.528;5.076;2022-10-16T15:00:15;31.30;;;29.55;;
64157;SDS011;50449;51.528;5.076;2022-10-16T15:02:49;30.83;;;28.63;;
64157;SDS011;50449;51.528;5.076;2022-10-16T15:05:22;29.15;;;27.65;;
64157;SDS011;50449;51.528;5.076;2022-10-16T15:07:52;30.63;;;29.00;;
64157;SDS011;50449;51.528;5.076;2022-10-16T15:10:19;31.08;;;29.40;;
64157;SDS011;50449;51.528;5.076;2022-10-16T15:12:46;32.60;;;30.55;;
64157;SDS011;50449;51.528;5.076;2022-10-16T15:15:23;30.85;;;29.00;;
64157;SDS011;50449;51.528;5.076;2022-10-16T15:17:53;30.98;;;28.90;;
64157;SDS011;50449;51.528;5.076;2022-10-16T15:20:22;33.83;;;31.85;;
64157;SDS011;50449;51.528;5.076;2022-10-16T15:22:48;32.45;;;30.38;;
64157;SDS011;50449;51.528;5.076;2022-10-16T15:28:09;29.77;;;27.95;;
64157;SDS011;50449;51.528;5.076;2022-10-16T15:30:36;32.15;;;30.48;;
64157;SDS011;50449;51.528;5.076;2022-10-16T15:33:02;30.70;;;29.05;;
64157;SDS011;50449;51.528;5.076;2022-10-16T15:35:28;31.27;;;29.38;;
64157;SDS011;50449;51.528;5.076;2022-10-16T15:37:53;35.38;;;32.47;;
64157;SDS011;50449;51.528;5.076;2022-10-16T15:40:19;30.73;;;29.02;;
64157;SDS011;50449;51.528;5.076;2022-10-16T15:42:45;32.90;;;30.90;;
64157;SDS011;50449;51.528;5.076;2022-10-16T15:45:11;29.67;;;27.80;;
64157;SDS011;50449;51.528;5.076;2022-10-16T15:47:37;30.50;;;28.67;;
64157;SDS011;50449;51.528;5.076;2022-10-16T15:50:03;30.83;;;29.00;;
64157;SDS011;50449;51.528;5.076;2022-10-16T15:52:30;30.73;;;28.88;;
64157;SDS011;50449;51.528;5.076;2022-10-16T15:54:56;30.42;;;28.70;;
64157;SDS011;50449;51.528;5.076;2022-10-16T15:57:23;31.42;;;29.73;;
64157;SDS011;50449;51.528;5.076;2022-10-16T15:59:49;34.55;;;32.20;;
64157;SDS011;50449;51.528;5.076;2022-10-16T16:02:15;34.00;;;31.90;;
64157;SDS011;50449;51.528;5.076;2022-10-16T16:04:41;35.00;;;32.22;;
64157;SDS011;50449;51.528;5.076;2022-10-16T16:07:06;31.95;;;30.27;;
64157;SDS011;50449;51.528;5.076;2022-10-16T16:09:34;33.20;;;30.98;;
64157;SDS011;50449;51.528;5.076;2022-10-16T16:12:00;30.33;;;28.63;;
64157;SDS011;50449;51.528;5.076;2022-10-16T16:14:26;31.80;;;29.90;;
64157;SDS011;50449;51.528;5.076;2022-10-16T16:16:53;33.33;;;31.52;;
64157;SDS011;50449;51.528;5.076;2022-10-16T16:19:19;32.30;;;30.55;;
64157;SDS011;50449;51.528;5.076;2022-10-16T16:21:46;33.50;;;31.52;;
64157;SDS011;50449;51.528;5.076;2022-10-16T16:24:12;32.38;;;30.10;;